Main page
METAR-TAF:

METAR-TAF

Airports :

Base de Almagro

Almagro, Spain

latitude: 38-57-11N, longitude: 3-44-29W, elevation: 629 m

Current weather observation

The report was made 18 minutes ago, at 18:00 UTC
Wind 4 kt from the Northeast, varying between North and East
Temperature 15°C
Humidity 88%
Pressure 1014 hPa
Visibility 10 km or more
Scattered clouds at a height of 1400 ft
Broken clouds at a height of 2000 ft

METAR: LEAO 191800Z 05004KT 360V100 9999 SCT014 BKN020 15/13 Q1014

Time: 20:18 (18:18 UTC)

Forecast

The report was made 1 hour and 18 minutes ago, at 17:00 UTC
Forecast valid from 20 at 18 UTC to 21 at 03 UTC
Wind 10 kt from the East
Visibility 10 km or more
Scattered clouds at a height of 1000 ft

TAF: LEAO 201700Z 2018/2103 09010KT 9999 SCT010

Weather observations and forecasts of more than 4000 airports (METAR and TAF reports).

The available stations are represented by yellow and red dots on the map.

Hover mouse over dot to see the name of the station.

Then click to see weather observations and forecasts.

To change the map : click on the green buttons with a black cross to zoom in, on the green button with a dash to zoom out, or on the green arrows for adjacent maps.


METAR-TAF: